sensor_id;sensor_type;location;lat;lon;timestamp;P1;durP1;ratioP1;P2;durP2;ratioP2
16820;SDS011;8527;49.740;6.604;2023-06-22T00:05:03;11.93;;;8.48;;
16820;SDS011;8527;49.740;6.604;2023-06-22T00:10:02;12.48;;;9.15;;
16820;SDS011;8527;49.740;6.604;2023-06-22T00:15:08;12.50;;;9.02;;
16820;SDS011;8527;49.740;6.604;2023-06-22T00:20:07;15.18;;;9.45;;
16820;SDS011;8527;49.740;6.604;2023-06-22T00:25:07;15.70;;;9.18;;
16820;SDS011;8527;49.740;6.604;2023-06-22T00:30:10;15.38;;;9.68;;
16820;SDS011;8527;49.740;6.604;2023-06-22T00:35:12;13.80;;;9.23;;
16820;SDS011;8527;49.740;6.604;2023-06-22T00:40:10;13.95;;;9.10;;
16820;SDS011;8527;49.740;6.604;2023-06-22T00:45:19;16.08;;;9.50;;
16820;SDS011;8527;49.740;6.604;2023-06-22T00:50:18;13.55;;;9.65;;
16820;SDS011;8527;49.740;6.604;2023-06-22T00:55:18;13.43;;;9.18;;
16820;SDS011;8527;49.740;6.604;2023-06-22T01:00:23;15.65;;;9.40;;
16820;SDS011;8527;49.740;6.604;2023-06-22T01:05:22;13.60;;;9.77;;
16820;SDS011;8527;49.740;6.604;2023-06-22T01:10:27;16.23;;;10.27;;
16820;SDS011;8527;49.740;6.604;2023-06-22T01:15:35;14.10;;;9.13;;
16820;SDS011;8527;49.740;6.604;2023-06-22T01:20:41;11.80;;;9.23;;
16820;SDS011;8527;49.740;6.604;2023-06-22T01:25:45;17.25;;;11.00;;
16820;SDS011;8527;49.740;6.604;2023-06-22T01:30:48;17.55;;;11.43;;
16820;SDS011;8527;49.740;6.604;2023-06-22T01:35:55;14.10;;;10.38;;
16820;SDS011;8527;49.740;6.604;2023-06-22T01:40:58;15.02;;;10.07;;
16820;SDS011;8527;49.740;6.604;2023-06-22T01:46:05;14.55;;;10.68;;
16820;SDS011;8527;49.740;6.604;2023-06-22T01:51:12;12.05;;;8.95;;
16820;SDS011;8527;49.740;6.604;2023-06-22T01:56:14;13.30;;;9.43;;
16820;SDS011;8527;49.740;6.604;2023-06-22T02:01:19;12.65;;;9.07;;
16820;SDS011;8527;49.740;6.604;2023-06-22T02:06:23;12.43;;;9.35;;
16820;SDS011;8527;49.740;6.604;2023-06-22T02:11:35;12.02;;;9.48;;
16820;SDS011;8527;49.740;6.604;2023-06-22T02:16:38;11.07;;;8.82;;
16820;SDS011;8527;49.740;6.604;2023-06-22T02:21:36;11.80;;;9.75;;
16820;SDS011;8527;49.740;6.604;2023-06-22T02:26:35;12.63;;;9.40;;
16820;SDS011;8527;49.740;6.604;2023-06-22T02:31:40;13.23;;;9.20;;
16820;SDS011;8527;49.740;6.604;2023-06-22T02:36:40;11.90;;;9.68;;
16820;SDS011;8527;49.740;6.604;2023-06-22T02:41:45;11.95;;;9.90;;
16820;SDS011;8527;49.740;6.604;2023-06-22T02:46:46;16.50;;;11.88;;
16820;SDS011;8527;49.740;6.604;2023-06-22T02:51:49;12.50;;;10.55;;
16820;SDS011;8527;49.740;6.604;2023-06-22T02:56:48;14.43;;;11.30;;
16820;SDS011;8527;49.740;6.604;2023-06-22T03:01:53;14.50;;;10.45;;
16820;SDS011;8527;49.740;6.604;2023-06-22T03:06:52;15.02;;;9.52;;
16820;SDS011;8527;49.740;6.604;2023-06-22T03:11:50;14.35;;;10.13;;
16820;SDS011;8527;49.740;6.604;2023-06-22T03:16:50;15.45;;;10.15;;
16820;SDS011;8527;49.740;6.604;2023-06-22T03:21:58;13.63;;;9.70;;
16820;SDS011;8527;49.740;6.604;2023-06-22T03:26:57;14.63;;;10.00;;
16820;SDS011;8527;49.740;6.604;2023-06-22T03:32:02;11.68;;;9.25;;
16820;SDS011;8527;49.740;6.604;2023-06-22T03:37:04;12.73;;;9.73;;
16820;SDS011;8527;49.740;6.604;2023-06-22T03:42:06;15.35;;;9.75;;
16820;SDS011;8527;49.740;6.604;2023-06-22T03:47:07;15.57;;;10.10;;
16820;SDS011;8527;49.740;6.604;2023-06-22T03:52:07;13.90;;;10.48;;
16820;SDS011;8527;49.740;6.604;2023-06-22T03:57:07;17.40;;;9.88;;
16820;SDS011;8527;49.740;6.604;2023-06-22T04:02:08;15.98;;;11.23;;
16820;SDS011;8527;49.740;6.604;2023-06-22T04:07:07;13.77;;;11.38;;
16820;SDS011;8527;49.740;6.604;2023-06-22T04:12:18;16.73;;;12.52;;
16820;SDS011;8527;49.740;6.604;2023-06-22T04:17:18;14.95;;;11.68;;
16820;SDS011;8527;49.740;6.604;2023-06-22T04:22:25;16.25;;;11.60;;
16820;SDS011;8527;49.740;6.604;2023-06-22T04:27:23;14.70;;;11.82;;
16820;SDS011;8527;49.740;6.604;2023-06-22T04:32:29;14.25;;;11.00;;
16820;SDS011;8527;49.740;6.604;2023-06-22T04:37:34;15.82;;;11.40;;
16820;SDS011;8527;49.740;6.604;2023-06-22T04:42:37;16.15;;;11.73;;
16820;SDS011;8527;49.740;6.604;2023-06-22T04:47:50;13.05;;;10.48;;
16820;SDS011;8527;49.740;6.604;2023-06-22T04:52:51;14.85;;;10.45;;
16820;SDS011;8527;49.740;6.604;2023-06-22T04:57:50;12.98;;;10.18;;
16820;SDS011;8527;49.740;6.604;2023-06-22T05:02:51;14.70;;;9.43;;
16820;SDS011;8527;49.740;6.604;2023-06-22T05:07:56;16.77;;;10.40;;
16820;SDS011;8527;49.740;6.604;2023-06-22T05:12:56;13.50;;;9.80;;
16820;SDS011;8527;49.740;6.604;2023-06-22T05:18:06;16.67;;;9.88;;
16820;SDS011;8527;49.740;6.604;2023-06-22T05:23:06;14.18;;;10.02;;
16820;SDS011;8527;49.740;6.604;2023-06-22T05:28:11;14.32;;;10.85;;
16820;SDS011;8527;49.740;6.604;2023-06-22T05:33:12;12.50;;;10.07;;
16820;SDS011;8527;49.740;6.604;2023-06-22T05:38:11;13.48;;;10.25;;
16820;SDS011;8527;49.740;6.604;2023-06-22T05:43:09;14.50;;;10.80;;
16820;SDS011;8527;49.740;6.604;2023-06-22T05:48:08;15.45;;;10.65;;
16820;SDS011;8527;49.740;6.604;2023-06-22T05:53:09;13.52;;;9.65;;
16820;SDS011;8527;49.740;6.604;2023-06-22T05:58:11;17.20;;;10.40;;
16820;SDS011;8527;49.740;6.604;2023-06-22T06:03:10;14.02;;;9.63;;
16820;SDS011;8527;49.740;6.604;2023-06-22T06:08:14;13.48;;;9.65;;
16820;SDS011;8527;49.740;6.604;2023-06-22T06:13:15;13.70;;;9.80;;
16820;SDS011;8527;49.740;6.604;2023-06-22T06:18:13;13.02;;;9.93;;
16820;SDS011;8527;49.740;6.604;2023-06-22T06:23:17;13.10;;;9.70;;
16820;SDS011;8527;49.740;6.604;2023-06-22T06:28:15;14.48;;;9.77;;
16820;SDS011;8527;49.740;6.604;2023-06-22T06:33:13;15.18;;;10.43;;
16820;SDS011;8527;49.740;6.604;2023-06-22T06:38:18;14.10;;;9.52;;
16820;SDS011;8527;49.740;6.604;2023-06-22T06:43:17;14.43;;;9.85;;
16820;SDS011;8527;49.740;6.604;2023-06-22T06:48:15;17.13;;;10.35;;
16820;SDS011;8527;49.740;6.604;2023-06-22T06:53:19;10.85;;;9.02;;
16820;SDS011;8527;49.740;6.604;2023-06-22T06:58:17;12.27;;;9.38;;
16820;SDS011;8527;49.740;6.604;2023-06-22T07:03:17;15.38;;;8.93;;
16820;SDS011;8527;49.740;6.604;2023-06-22T07:08:18;11.10;;;8.57;;
16820;SDS011;8527;49.740;6.604;2023-06-22T07:13:17;11.10;;;9.07;;
16820;SDS011;8527;49.740;6.604;2023-06-22T07:18:15;14.77;;;9.30;;
16820;SDS011;8527;49.740;6.604;2023-06-22T07:23:13;12.18;;;8.60;;
16820;SDS011;8527;49.740;6.604;2023-06-22T07:28:15;13.68;;;10.63;;
16820;SDS011;8527;49.740;6.604;2023-06-22T07:33:14;16.77;;;10.10;;
16820;SDS011;8527;49.740;6.604;2023-06-22T07:38:13;13.55;;;9.25;;
16820;SDS011;8527;49.740;6.604;2023-06-22T07:43:11;11.73;;;9.32;;
16820;SDS011;8527;49.740;6.604;2023-06-22T07:48:15;12.07;;;9.30;;
16820;SDS011;8527;49.740;6.604;2023-06-22T07:53:16;12.88;;;8.77;;
16820;SDS011;8527;49.740;6.604;2023-06-22T07:58:15;14.07;;;8.80;;
16820;SDS011;8527;49.740;6.604;2023-06-22T08:03:18;12.95;;;9.27;;
16820;SDS011;8527;49.740;6.604;2023-06-22T08:08:16;15.23;;;9.32;;
16820;SDS011;8527;49.740;6.604;2023-06-22T08:13:15;14.02;;;9.40;;
16820;SDS011;8527;49.740;6.604;2023-06-22T08:18:14;12.95;;;8.80;;
16820;SDS011;8527;49.740;6.604;2023-06-22T08:23:15;15.63;;;9.10;;
16820;SDS011;8527;49.740;6.604;2023-06-22T08:28:14;12.07;;;8.43;;
16820;SDS011;8527;49.740;6.604;2023-06-22T08:33:12;12.75;;;8.48;;
16820;SDS011;8527;49.740;6.604;2023-06-22T08:38:10;14.55;;;9.18;;
16820;SDS011;8527;49.740;6.604;2023-06-22T08:43:13;13.05;;;8.68;;
16820;SDS011;8527;49.740;6.604;2023-06-22T08:48:15;11.93;;;9.18;;
16820;SDS011;8527;49.740;6.604;2023-06-22T08:53:17;15.65;;;8.27;;
16820;SDS011;8527;49.740;6.604;2023-06-22T08:58:20;15.07;;;9.13;;
16820;SDS011;8527;49.740;6.604;2023-06-22T09:03:19;14.40;;;8.32;;
16820;SDS011;8527;49.740;6.604;2023-06-22T09:08:22;9.38;;;7.93;;
16820;SDS011;8527;49.740;6.604;2023-06-22T09:13:29;22.95;;;10.15;;
16820;SDS011;8527;49.740;6.604;2023-06-22T09:18:30;12.45;;;9.45;;
16820;SDS011;8527;49.740;6.604;2023-06-22T09:23:32;18.80;;;9.15;;
16820;SDS011;8527;49.740;6.604;2023-06-22T09:28:36;14.93;;;10.20;;
16820;SDS011;8527;49.740;6.604;2023-06-22T09:33:34;19.38;;;9.98;;
16820;SDS011;8527;49.740;6.604;2023-06-22T09:38:38;14.30;;;10.02;;
16820;SDS011;8527;49.740;6.604;2023-06-22T09:43:39;18.48;;;10.43;;
16820;SDS011;8527;49.740;6.604;2023-06-22T09:48:37;13.23;;;9.57;;
16820;SDS011;8527;49.740;6.604;2023-06-22T09:53:38;18.67;;;10.05;;
16820;SDS011;8527;49.740;6.604;2023-06-22T09:58:39;13.32;;;10.10;;
16820;SDS011;8527;49.740;6.604;2023-06-22T10:03:37;16.00;;;9.68;;
16820;SDS011;8527;49.740;6.604;2023-06-22T10:08:41;14.82;;;9.73;;
16820;SDS011;8527;49.740;6.604;2023-06-22T10:13:45;19.83;;;9.77;;
16820;SDS011;8527;49.740;6.604;2023-06-22T10:18:47;14.68;;;8.90;;
16820;SDS011;8527;49.740;6.604;2023-06-22T10:23:48;18.00;;;11.35;;
16820;SDS011;8527;49.740;6.604;2023-06-22T10:28:49;16.48;;;10.30;;
16820;SDS011;8527;49.740;6.604;2023-06-22T10:33:48;17.67;;;10.38;;
16820;SDS011;8527;49.740;6.604;2023-06-22T10:38:46;14.75;;;10.85;;
16820;SDS011;8527;49.740;6.604;2023-06-22T10:43:45;14.20;;;10.60;;
16820;SDS011;8527;49.740;6.604;2023-06-22T10:48:51;20.92;;;10.95;;
16820;SDS011;8527;49.740;6.604;2023-06-22T10:53:53;15.10;;;10.38;;
16820;SDS011;8527;49.740;6.604;2023-06-22T10:58:52;17.08;;;10.60;;
16820;SDS011;8527;49.740;6.604;2023-06-22T11:03:56;14.60;;;10.13;;
16820;SDS011;8527;49.740;6.604;2023-06-22T11:08:54;19.50;;;10.60;;
16820;SDS011;8527;49.740;6.604;2023-06-22T11:14:01;18.00;;;10.23;;
16820;SDS011;8527;49.740;6.604;2023-06-22T11:19:02;15.25;;;10.55;;
16820;SDS011;8527;49.740;6.604;2023-06-22T11:24:02;16.95;;;9.93;;
16820;SDS011;8527;49.740;6.604;2023-06-22T11:29:00;13.02;;;9.07;;
16820;SDS011;8527;49.740;6.604;2023-06-22T11:34:03;13.88;;;9.88;;
16820;SDS011;8527;49.740;6.604;2023-06-22T11:39:09;12.38;;;9.65;;
16820;SDS011;8527;49.740;6.604;2023-06-22T11:44:20;13.10;;;9.60;;
16820;SDS011;8527;49.740;6.604;2023-06-22T11:49:24;17.65;;;10.15;;
16820;SDS011;8527;49.740;6.604;2023-06-22T11:54:22;12.00;;;9.35;;
16820;SDS011;8527;49.740;6.604;2023-06-22T11:59:23;14.52;;;9.07;;
16820;SDS011;8527;49.740;6.604;2023-06-22T12:04:24;14.43;;;9.35;;
16820;SDS011;8527;49.740;6.604;2023-06-22T12:09:22;12.35;;;9.18;;
16820;SDS011;8527;49.740;6.604;2023-06-22T12:14:21;15.18;;;9.90;;
16820;SDS011;8527;49.740;6.604;2023-06-22T12:19:19;16.40;;;9.73;;
16820;SDS011;8527;49.740;6.604;2023-06-22T12:24:26;10.48;;;8.32;;
16820;SDS011;8527;49.740;6.604;2023-06-22T12:29:25;14.50;;;8.90;;
16820;SDS011;8527;49.740;6.604;2023-06-22T12:34:23;12.90;;;9.00;;
16820;SDS011;8527;49.740;6.604;2023-06-22T12:39:21;13.13;;;8.88;;
16820;SDS011;8527;49.740;6.604;2023-06-22T12:44:22;14.02;;;8.77;;
16820;SDS011;8527;49.740;6.604;2023-06-22T12:49:21;11.65;;;9.07;;
16820;SDS011;8527;49.740;6.604;2023-06-22T12:54:22;14.07;;;8.48;;
16820;SDS011;8527;49.740;6.604;2023-06-22T12:59:23;12.38;;;8.35;;
16820;SDS011;8527;49.740;6.604;2023-06-22T13:04:21;12.30;;;8.57;;
16820;SDS011;8527;49.740;6.604;2023-06-22T13:09:19;18.27;;;9.13;;
16820;SDS011;8527;49.740;6.604;2023-06-22T13:14:18;35.30;;;11.45;;
16820;SDS011;8527;49.740;6.604;2023-06-22T13:19:24;22.02;;;11.00;;
16820;SDS011;8527;49.740;6.604;2023-06-22T13:24:27;19.23;;;8.82;;
16820;SDS011;8527;49.740;6.604;2023-06-22T13:29:28;22.65;;;7.28;;
16820;SDS011;8527;49.740;6.604;2023-06-22T13:34:26;16.63;;;6.93;;
16820;SDS011;8527;49.740;6.604;2023-06-22T13:39:27;16.48;;;6.38;;
16820;SDS011;8527;49.740;6.604;2023-06-22T13:44:28;14.55;;;5.35;;
16820;SDS011;8527;49.740;6.604;2023-06-22T13:49:27;24.15;;;4.90;;
16820;SDS011;8527;49.740;6.604;2023-06-22T13:54:25;24.67;;;5.15;;
16820;SDS011;8527;49.740;6.604;2023-06-22T13:59:29;15.00;;;4.45;;
16820;SDS011;8527;49.740;6.604;2023-06-22T14:04:30;13.25;;;4.32;;
16820;SDS011;8527;49.740;6.604;2023-06-22T14:09:34;15.98;;;4.43;;
16820;SDS011;8527;49.740;6.604;2023-06-22T14:14:35;15.07;;;5.03;;
16820;SDS011;8527;49.740;6.604;2023-06-22T14:19:33;16.83;;;4.75;;
16820;SDS011;8527;49.740;6.604;2023-06-22T14:24:32;16.83;;;4.57;;
16820;SDS011;8527;49.740;6.604;2023-06-22T14:29:30;12.38;;;4.13;;
16820;SDS011;8527;49.740;6.604;2023-06-22T14:34:31;15.38;;;4.53;;
16820;SDS011;8527;49.740;6.604;2023-06-22T14:39:33;11.75;;;4.30;;
16820;SDS011;8527;49.740;6.604;2023-06-22T14:44:34;14.88;;;3.92;;
16820;SDS011;8527;49.740;6.604;2023-06-22T14:49:35;10.25;;;4.10;;
16820;SDS011;8527;49.740;6.604;2023-06-22T14:54:34;12.43;;;4.72;;
16820;SDS011;8527;49.740;6.604;2023-06-22T14:59:32;10.07;;;3.85;;
16820;SDS011;8527;49.740;6.604;2023-06-22T15:04:36;9.20;;;3.47;;
16820;SDS011;8527;49.740;6.604;2023-06-22T15:09:34;8.93;;;3.55;;
16820;SDS011;8527;49.740;6.604;2023-06-22T15:14:38;10.13;;;3.50;;
16820;SDS011;8527;49.740;6.604;2023-06-22T15:19:42;6.50;;;3.40;;
16820;SDS011;8527;49.740;6.604;2023-06-22T15:24:41;7.72;;;3.33;;
16820;SDS011;8527;49.740;6.604;2023-06-22T15:29:40;8.90;;;3.65;;
16820;SDS011;8527;49.740;6.604;2023-06-22T15:34:41;7.10;;;3.28;;
16820;SDS011;8527;49.740;6.604;2023-06-22T15:39:45;6.97;;;3.15;;
16820;SDS011;8527;49.740;6.604;2023-06-22T15:44:43;7.68;;;3.50;;
16820;SDS011;8527;49.740;6.604;2023-06-22T15:49:44;7.82;;;3.20;;
16820;SDS011;8527;49.740;6.604;2023-06-22T15:54:43;4.15;;;2.33;;
16820;SDS011;8527;49.740;6.604;2023-06-22T15:59:43;8.35;;;1.90;;
16820;SDS011;8527;49.740;6.604;2023-06-22T16:04:47;13.75;;;2.00;;
16820;SDS011;8527;49.740;6.604;2023-06-22T16:09:45;7.38;;;1.30;;
16820;SDS011;8527;49.740;6.604;2023-06-22T16:14:44;2.25;;;1.55;;
16820;SDS011;8527;49.740;6.604;2023-06-22T16:19:45;2.58;;;1.35;;
16820;SDS011;8527;49.740;6.604;2023-06-22T16:24:49;4.82;;;1.58;;
16820;SDS011;8527;49.740;6.604;2023-06-22T16:29:50;2.05;;;1.33;;
16820;SDS011;8527;49.740;6.604;2023-06-22T16:34:51;3.88;;;1.63;;
16820;SDS011;8527;49.740;6.604;2023-06-22T16:39:50;3.67;;;1.27;;
16820;SDS011;8527;49.740;6.604;2023-06-22T16:44:51;1.27;;;1.17;;
16820;SDS011;8527;49.740;6.604;2023-06-22T16:49:52;1.45;;;1.35;;
16820;SDS011;8527;49.740;6.604;2023-06-22T16:54:51;2.03;;;1.08;;
16820;SDS011;8527;49.740;6.604;2023-06-22T16:59:50;5.38;;;1.45;;
16820;SDS011;8527;49.740;6.604;2023-06-22T17:04:54;5.63;;;1.55;;
16820;SDS011;8527;49.740;6.604;2023-06-22T17:09:53;4.35;;;2.10;;
16820;SDS011;8527;49.740;6.604;2023-06-22T17:14:53;3.15;;;2.00;;
16820;SDS011;8527;49.740;6.604;2023-06-22T17:19:55;3.50;;;1.52;;
16820;SDS011;8527;49.740;6.604;2023-06-22T17:24:53;2.10;;;1.50;;
16820;SDS011;8527;49.740;6.604;2023-06-22T17:30:02;1.63;;;1.10;;
16820;SDS011;8527;49.740;6.604;2023-06-22T17:35:09;7.72;;;1.40;;
16820;SDS011;8527;49.740;6.604;2023-06-22T17:40:11;1.60;;;0.90;;
16820;SDS011;8527;49.740;6.604;2023-06-22T17:45:14;0.77;;;0.60;;
16820;SDS011;8527;49.740;6.604;2023-06-22T17:50:21;0.32;;;0.30;;
16820;SDS011;8527;49.740;6.604;2023-06-22T17:55:20;1.92;;;1.00;;
16820;SDS011;8527;49.740;6.604;2023-06-22T18:00:19;1.25;;;0.60;;
16820;SDS011;8527;49.740;6.604;2023-06-22T18:05:22;2.88;;;0.65;;
16820;SDS011;8527;49.740;6.604;2023-06-22T18:10:30;1.88;;;0.82;;
16820;SDS011;8527;49.740;6.604;2023-06-22T18:15:29;3.00;;;1.55;;
16820;SDS011;8527;49.740;6.604;2023-06-22T18:20:31;2.42;;;1.20;;
16820;SDS011;8527;49.740;6.604;2023-06-22T18:25:30;1.48;;;1.30;;
16820;SDS011;8527;49.740;6.604;2023-06-22T18:30:32;1.63;;;1.50;;
16820;SDS011;8527;49.740;6.604;2023-06-22T18:35:34;3.70;;;1.70;;
16820;SDS011;8527;49.740;6.604;2023-06-22T18:40:34;2.15;;;1.77;;
16820;SDS011;8527;49.740;6.604;2023-06-22T18:45:36;5.55;;;1.90;;
16820;SDS011;8527;49.740;6.604;2023-06-22T18:50:39;3.55;;;2.08;;
16820;SDS011;8527;49.740;6.604;2023-06-22T18:55:42;4.72;;;2.40;;
16820;SDS011;8527;49.740;6.604;2023-06-22T19:00:41;4.82;;;2.33;;
16820;SDS011;8527;49.740;6.604;2023-06-22T19:05:43;2.40;;;2.20;;
16820;SDS011;8527;49.740;6.604;2023-06-22T19:10:41;2.58;;;2.08;;
16820;SDS011;8527;49.740;6.604;2023-06-22T19:15:41;4.75;;;2.17;;
16820;SDS011;8527;49.740;6.604;2023-06-22T19:20:43;2.03;;;1.83;;
16820;SDS011;8527;49.740;6.604;2023-06-22T19:25:45;3.58;;;1.80;;
16820;SDS011;8527;49.740;6.604;2023-06-22T19:30:43;1.80;;;1.70;;
16820;SDS011;8527;49.740;6.604;2023-06-22T19:35:45;3.15;;;2.00;;
16820;SDS011;8527;49.740;6.604;2023-06-22T19:40:44;1.92;;;1.40;;
16820;SDS011;8527;49.740;6.604;2023-06-22T19:45:43;1.30;;;1.20;;
16820;SDS011;8527;49.740;6.604;2023-06-22T19:50:44;2.67;;;1.60;;
16820;SDS011;8527;49.740;6.604;2023-06-22T19:55:43;0.75;;;0.75;;
16820;SDS011;8527;49.740;6.604;2023-06-22T20:00:42;1.02;;;0.85;;
16820;SDS011;8527;49.740;6.604;2023-06-22T20:05:50;2.22;;;0.90;;
16820;SDS011;8527;49.740;6.604;2023-06-22T20:10:52;1.10;;;1.10;;
16820;SDS011;8527;49.740;6.604;2023-06-22T20:15:57;1.80;;;1.15;;
16820;SDS011;8527;49.740;6.604;2023-06-22T20:21:12;1.40;;;1.30;;
16820;SDS011;8527;49.740;6.604;2023-06-22T20:26:11;2.60;;;2.30;;
16820;SDS011;8527;49.740;6.604;2023-06-22T20:31:15;5.18;;;3.97;;
16820;SDS011;8527;49.740;6.604;2023-06-22T20:36:21;6.38;;;4.47;;
16820;SDS011;8527;49.740;6.604;2023-06-22T20:41:19;7.88;;;3.90;;
16820;SDS011;8527;49.740;6.604;2023-06-22T20:46:22;8.25;;;4.10;;
16820;SDS011;8527;49.740;6.604;2023-06-22T20:51:27;4.65;;;3.70;;
16820;SDS011;8527;49.740;6.604;2023-06-22T20:56:30;5.82;;;3.95;;
16820;SDS011;8527;49.740;6.604;2023-06-22T21:01:29;9.38;;;4.80;;
16820;SDS011;8527;49.740;6.604;2023-06-22T21:06:30;8.48;;;5.18;;
16820;SDS011;8527;49.740;6.604;2023-06-22T21:11:28;6.88;;;4.90;;
16820;SDS011;8527;49.740;6.604;2023-06-22T21:16:27;7.40;;;4.80;;
16820;SDS011;8527;49.740;6.604;2023-06-22T21:21:25;6.38;;;4.90;;
16820;SDS011;8527;49.740;6.604;2023-06-22T21:26:26;7.15;;;5.13;;
16820;SDS011;8527;49.740;6.604;2023-06-22T21:31:24;7.57;;;5.40;;
16820;SDS011;8527;49.740;6.604;2023-06-22T21:36:30;8.38;;;5.28;;
16820;SDS011;8527;49.740;6.604;2023-06-22T21:41:33;9.50;;;5.75;;
16820;SDS011;8527;49.740;6.604;2023-06-22T21:46:32;9.98;;;5.57;;
16820;SDS011;8527;49.740;6.604;2023-06-22T21:51:30;6.78;;;4.97;;
16820;SDS011;8527;49.740;6.604;2023-06-22T21:56:34;7.40;;;4.93;;
16820;SDS011;8527;49.740;6.604;2023-06-22T22:01:33;8.95;;;5.32;;
16820;SDS011;8527;49.740;6.604;2023-06-22T22:06:31;7.68;;;4.93;;
16820;SDS011;8527;49.740;6.604;2023-06-22T22:11:39;9.73;;;5.35;;
16820;SDS011;8527;49.740;6.604;2023-06-22T22:16:40;7.88;;;5.38;;
16820;SDS011;8527;49.740;6.604;2023-06-22T22:21:38;7.75;;;4.90;;
16820;SDS011;8527;49.740;6.604;2023-06-22T22:26:40;8.63;;;5.18;;
16820;SDS011;8527;49.740;6.604;2023-06-22T22:31:40;8.73;;;5.35;;
16820;SDS011;8527;49.740;6.604;2023-06-22T22:36:39;6.63;;;4.95;;
16820;SDS011;8527;49.740;6.604;2023-06-22T22:41:40;9.65;;;5.07;;
16820;SDS011;8527;49.740;6.604;2023-06-22T22:46:38;7.50;;;5.03;;
16820;SDS011;8527;49.740;6.604;2023-06-22T22:51:37;7.28;;;5.20;;
16820;SDS011;8527;49.740;6.604;2023-06-22T22:56:45;8.38;;;5.22;;
16820;SDS011;8527;49.740;6.604;2023-06-22T23:01:45;7.63;;;5.60;;
16820;SDS011;8527;49.740;6.604;2023-06-22T23:06:43;9.68;;;5.78;;
16820;SDS011;8527;49.740;6.604;2023-06-22T23:11:41;7.38;;;5.43;;
16820;SDS011;8527;49.740;6.604;2023-06-22T23:16:45;10.88;;;6.35;;
16820;SDS011;8527;49.740;6.604;2023-06-22T23:21:44;8.60;;;6.10;;
16820;SDS011;8527;49.740;6.604;2023-06-22T23:26:46;9.35;;;5.78;;
16820;SDS011;8527;49.740;6.604;2023-06-22T23:31:47;8.77;;;6.07;;
16820;SDS011;8527;49.740;6.604;2023-06-22T23:36:46;11.57;;;6.43;;
16820;SDS011;8527;49.740;6.604;2023-06-22T23:41:50;12.02;;;7.00;;
16820;SDS011;8527;49.740;6.604;2023-06-22T23:46:52;12.25;;;7.15;;
16820;SDS011;8527;49.740;6.604;2023-06-22T23:51:52;12.00;;;8.35;;
16820;SDS011;8527;49.740;6.604;2023-06-22T23:56:51;16.15;;;8.82;;
